Time;durP1;ratioP1;P1;durP2;ratioP2;P2;SDS_P1;SDS_P2;PMS_P1;PMS_P2;Temp;Humidity;BMP_temperature;BMP_pressure;BME280_temperature;BME280_humidity;BME280_pressure;Samples;Min_cycle;Max_cycle;Signal;HPM_P1;HPM_P2
2023/10/03 00:01:37;;;;;;;21.48;10.30;;;;;;;;;;6301423;22;20003;-80
2023/10/03 00:04:04;;;;;;;25.55;11.15;;;;;;;;;;6328386;22;20015;-80
2023/10/03 00:06:30;;;;;;;20.70;10.60;;;;;;;;;;6323704;22;20012;-80
2023/10/03 00:08:56;;;;;;;23.33;10.90;;;;;;;;;;6322037;22;20011;-80
2023/10/03 00:11:22;;;;;;;21.20;11.05;;;;;;;;;;6323506;22;20327;-81
2023/10/03 00:13:51;;;;;;;21.52;10.45;;;;;;;;;;6324640;22;20037;-80
2023/10/03 00:16:17;;;;;;;23.80;11.45;;;;;;;;;;6324553;22;20012;-80
2023/10/03 00:18:44;;;;;;;22.33;11.20;;;;;;;;;;6325322;22;20016;-80
2023/10/03 00:21:10;;;;;;;23.02;10.82;;;;;;;;;;6321723;22;20026;-80
2023/10/03 00:23:36;;;;;;;25.05;11.60;;;;;;;;;;6323047;22;20037;-80
2023/10/03 00:26:02;;;;;;;23.58;12.98;;;;;;;;;;6322738;22;20333;-80
2023/10/03 00:28:33;;;;;;;24.10;11.38;;;;;;;;;;6269752;22;20019;-80
2023/10/03 00:31:00;;;;;;;23.80;11.02;;;;;;;;;;6269331;22;20018;-80
2023/10/03 00:33:26;;;;;;;22.27;11.50;;;;;;;;;;6295814;22;20033;-80
2023/10/03 00:35:55;;;;;;;22.15;11.75;;;;;;;;;;6296381;22;20011;-80
2023/10/03 00:38:22;;;;;;;19.42;10.10;;;;;;;;;;6295896;22;20019;-80
2023/10/03 00:40:55;;;;;;;21.20;12.07;;;;;;;;;;6270177;22;20019;-80
2023/10/03 00:43:21;;;;;;;21.23;9.50;;;;;;;;;;6324056;22;20034;-80
2023/10/03 00:45:49;;;;;;;21.20;10.23;;;;;;;;;;6323863;22;20018;-80
2023/10/03 00:48:17;;;;;;;17.58;10.15;;;;;;;;;;6295235;22;20027;-80
2023/10/03 00:50:46;;;;;;;18.65;10.60;;;;;;;;;;6322332;22;20082;-80
2023/10/03 00:53:13;;;;;;;18.45;9.82;;;;;;;;;;6295731;22;20015;-80
2023/10/03 00:55:43;;;;;;;20.73;8.95;;;;;;;;;;6295497;22;20015;-81
2023/10/03 01:00:45;;;;;;;20.05;10.50;;;;;;;;;;6322433;22;20015;-80
2023/10/03 01:03:36;;;;;;;18.60;9.48;;;;;;;;;;6322550;22;20049;-80
2023/10/03 01:06:08;;;;;;;21.92;10.63;;;;;;;;;;6322749;22;20011;-80
2023/10/03 01:08:36;;;;;;;19.77;9.30;;;;;;;;;;6323881;22;20012;-80
2023/10/03 01:11:04;;;;;;;18.60;8.20;;;;;;;;;;6295212;22;20012;-80
2023/10/03 01:13:31;;;;;;;20.95;8.88;;;;;;;;;;6269410;22;20011;-80
2023/10/03 01:15:56;;;;;;;21.05;9.20;;;;;;;;;;6295796;22;20011;-80
2023/10/03 01:18:26;;;;;;;19.90;9.43;;;;;;;;;;6324849;22;20014;-80
2023/10/03 01:20:55;;;;;;;17.38;8.32;;;;;;;;;;6323470;22;20011;-80
2023/10/03 01:23:21;;;;;;;18.10;8.85;;;;;;;;;;6321987;22;20015;-80
2023/10/03 01:25:48;;;;;;;20.90;8.45;;;;;;;;;;6294437;22;20022;-80
2023/10/03 01:28:15;;;;;;;19.55;8.88;;;;;;;;;;6322378;22;20050;-80
2023/10/03 01:30:41;;;;;;;18.60;8.13;;;;;;;;;;6295668;22;20022;-80
2023/10/03 01:33:11;;;;;;;18.70;7.47;;;;;;;;;;6293743;22;20018;-80
2023/10/03 01:35:38;;;;;;;22.55;8.55;;;;;;;;;;6322618;22;20021;-80
2023/10/03 01:38:06;;;;;;;18.38;8.23;;;;;;;;;;6293448;22;20015;-80
2023/10/03 01:40:33;;;;;;;19.63;9.23;;;;;;;;;;6320428;22;20011;-80
2023/10/03 01:42:59;;;;;;;19.58;8.32;;;;;;;;;;6322792;22;20011;-80
2023/10/03 01:45:27;;;;;;;20.13;8.40;;;;;;;;;;6295383;22;20041;-80
2023/10/03 01:47:58;;;;;;;16.95;8.43;;;;;;;;;;6294677;22;20015;-80
2023/10/03 01:50:25;;;;;;;17.27;7.50;;;;;;;;;;6270069;22;20066;-80
2023/10/03 01:52:52;;;;;;;16.33;8.82;;;;;;;;;;6268064;22;20019;-80
2023/10/03 01:55:18;;;;;;;14.25;7.50;;;;;;;;;;6294877;22;20015;-80
2023/10/03 01:57:47;;;;;;;17.60;7.72;;;;;;;;;;6295570;22;20058;-80
2023/10/03 02:02:50;;;;;;;21.23;7.78;;;;;;;;;;6322154;22;20023;-80
2023/10/03 02:05:19;;;;;;;22.40;8.07;;;;;;;;;;6322556;22;20090;-80
2023/10/03 02:07:45;;;;;;;18.75;7.78;;;;;;;;;;6322263;22;20065;-80
2023/10/03 02:10:14;;;;;;;22.40;8.80;;;;;;;;;;6294935;22;20015;-80
2023/10/03 02:12:48;;;;;;;17.58;9.20;;;;;;;;;;6324353;22;20016;-80
2023/10/03 02:15:28;;;;;;;25.08;9.50;;;;;;;;;;6323851;22;20124;-80
2023/10/03 02:17:57;;;;;;;18.92;8.50;;;;;;;;;;6323676;22;20030;-80
2023/10/03 02:20:30;;;;;;;24.70;10.02;;;;;;;;;;6295133;22;20015;-80
2023/10/03 02:22:56;;;;;;;18.52;8.10;;;;;;;;;;6323411;22;20015;-80
2023/10/03 02:25:22;;;;;;;22.02;8.70;;;;;;;;;;6296870;22;20015;-80
2023/10/03 02:27:50;;;;;;;22.15;9.13;;;;;;;;;;6323607;22;20015;-80
2023/10/03 02:30:23;;;;;;;17.90;8.55;;;;;;;;;;6296377;22;20015;-80
2023/10/03 02:32:49;;;;;;;21.02;9.57;;;;;;;;;;6322872;22;20011;-80
2023/10/03 02:35:15;;;;;;;22.75;10.07;;;;;;;;;;6324293;22;20328;-80
2023/10/03 02:37:41;;;;;;;23.55;9.90;;;;;;;;;;6324163;22;20018;-80
2023/10/03 02:40:08;;;;;;;24.50;10.45;;;;;;;;;;6323007;22;20015;-80
2023/10/03 02:42:40;;;;;;;21.52;9.77;;;;;;;;;;6324667;22;20019;-80
2023/10/03 02:45:08;;;;;;;22.40;10.05;;;;;;;;;;6324363;22;20015;-80
2023/10/03 02:47:38;;;;;;;24.05;10.07;;;;;;;;;;6296202;22;20019;-80
2023/10/03 02:50:04;;;;;;;22.90;9.98;;;;;;;;;;6270600;22;20022;-80
2023/10/03 02:52:30;;;;;;;24.67;10.68;;;;;;;;;;6297023;22;20015;-80
2023/10/03 02:54:56;;;;;;;20.88;8.95;;;;;;;;;;6327085;22;20018;-80
2023/10/03 02:57:22;;;;;;;23.55;10.88;;;;;;;;;;6299182;22;20017;-80
2023/10/03 02:59:49;;;;;;;24.42;9.50;;;;;;;;;;6326267;22;20011;-80
2023/10/03 03:02:15;;;;;;;21.75;9.35;;;;;;;;;;6297733;22;20034;-80
2023/10/03 03:04:43;;;;;;;22.17;10.32;;;;;;;;;;6326377;22;20011;-80
2023/10/03 03:07:10;;;;;;;23.38;9.20;;;;;;;;;;6326074;22;20022;-80
2023/10/03 03:09:36;;;;;;;23.63;9.77;;;;;;;;;;6328082;22;20015;-80
2023/10/03 03:12:06;;;;;;;22.02;10.50;;;;;;;;;;6327030;22;20038;-80
2023/10/03 03:14:32;;;;;;;21.50;9.18;;;;;;;;;;6325995;22;20015;-80
2023/10/03 03:16:58;;;;;;;23.73;10.15;;;;;;;;;;6299521;22;20067;-80
2023/10/03 03:19:27;;;;;;;24.17;9.93;;;;;;;;;;6298627;22;20000;-80
2023/10/03 03:21:57;;;;;;;21.52;9.40;;;;;;;;;;6300247;22;20019;-80
2023/10/03 03:24:33;;;;;;;19.73;8.20;;;;;;;;;;6327072;22;20039;-80
2023/10/03 03:27:00;;;;;;;26.02;10.02;;;;;;;;;;6298879;22;20015;-80
2023/10/03 03:29:35;;;;;;;27.20;10.23;;;;;;;;;;6326563;22;20011;-80
2023/10/03 03:32:03;;;;;;;20.45;8.60;;;;;;;;;;6325921;22;20015;-80
2023/10/03 03:34:30;;;;;;;21.80;9.57;;;;;;;;;;6327358;22;20018;-80
2023/10/03 03:37:14;;;;;;;22.70;9.82;;;;;;;;;;6298527;22;20041;-80
2023/10/03 03:39:52;;;;;;;20.23;9.68;;;;;;;;;;6299418;22;20401;-80
2023/10/03 03:42:19;;;;;;;24.75;9.93;;;;;;;;;;6297810;22;20023;-80
2023/10/03 03:44:46;;;;;;;24.90;8.82;;;;;;;;;;6298663;22;19999;-80
2023/10/03 03:47:11;;;;;;;24.55;10.10;;;;;;;;;;6272350;22;20093;-80
2023/10/03 03:49:38;;;;;;;21.67;9.75;;;;;;;;;;6272463;22;20023;-81
2023/10/03 03:52:05;;;;;;;23.90;9.13;;;;;;;;;;6298327;22;20039;-81
2023/10/03 03:54:31;;;;;;;20.52;8.98;;;;;;;;;;6326025;22;20014;-80
2023/10/03 03:56:57;;;;;;;21.17;8.73;;;;;;;;;;6298753;22;20011;-80
2023/10/03 03:59:24;;;;;;;22.58;9.10;;;;;;;;;;6298371;22;20067;-80
2023/10/03 04:01:50;;;;;;;21.27;8.57;;;;;;;;;;6325044;22;20011;-80
2023/10/03 04:04:16;;;;;;;22.90;9.55;;;;;;;;;;6324664;22;20082;-80
2023/10/03 04:06:42;;;;;;;22.45;8.75;;;;;;;;;;6298514;22;20022;-80
2023/10/03 04:09:08;;;;;;;20.38;8.55;;;;;;;;;;6299304;22;20347;-80
2023/10/03 04:11:35;;;;;;;21.23;9.93;;;;;;;;;;6327046;22;20015;-80
2023/10/03 04:14:04;;;;;;;21.65;9.00;;;;;;;;;;6298159;22;20018;-80
2023/10/03 04:16:38;;;;;;;21.60;9.15;;;;;;;;;;6299650;22;20078;-80
2023/10/03 04:19:05;;;;;;;20.25;8.98;;;;;;;;;;6325577;22;20022;-80
2023/10/03 04:21:32;;;;;;;22.33;9.43;;;;;;;;;;6300105;22;20036;-80
2023/10/03 04:23:59;;;;;;;24.80;9.20;;;;;;;;;;6326895;22;20018;-80
2023/10/03 04:26:25;;;;;;;24.27;8.75;;;;;;;;;;6326915;22;20039;-80
2023/10/03 04:28:54;;;;;;;19.63;8.85;;;;;;;;;;6327407;22;20011;-80
2023/10/03 04:31:20;;;;;;;22.60;8.63;;;;;;;;;;6298762;22;20023;-80
2023/10/03 04:33:46;;;;;;;18.77;8.75;;;;;;;;;;6325600;22;20015;-80
2023/10/03 04:36:14;;;;;;;21.83;9.75;;;;;;;;;;6324955;22;20440;-80
2023/10/03 04:38:41;;;;;;;20.98;9.00;;;;;;;;;;6326944;22;20012;-80
2023/10/03 04:41:09;;;;;;;19.50;8.02;;;;;;;;;;6325865;22;20015;-80
2023/10/03 04:43:36;;;;;;;20.50;9.25;;;;;;;;;;6300510;22;20018;-80
2023/10/03 04:46:02;;;;;;;19.00;8.95;;;;;;;;;;6326787;22;20015;-80
2023/10/03 04:48:28;;;;;;;19.30;8.38;;;;;;;;;;6299842;22;20030;-80
2023/10/03 04:50:54;;;;;;;21.38;9.13;;;;;;;;;;6326123;22;20011;-80
2023/10/03 04:53:21;;;;;;;25.60;9.05;;;;;;;;;;6325039;22;20046;-80
2023/10/03 04:55:48;;;;;;;21.55;9.05;;;;;;;;;;6298818;22;20026;-80
2023/10/03 04:58:14;;;;;;;22.63;9.35;;;;;;;;;;6297622;22;20076;-81
2023/10/03 05:00:42;;;;;;;18.27;8.27;;;;;;;;;;6299025;22;20027;-81
2023/10/03 05:03:13;;;;;;;21.75;8.85;;;;;;;;;;6275194;22;20011;-80
2023/10/03 05:05:42;;;;;;;18.15;8.70;;;;;;;;;;6325750;22;19995;-80
2023/10/03 05:08:08;;;;;;;18.30;8.38;;;;;;;;;;6299794;22;20019;-80
2023/10/03 05:10:35;;;;;;;16.67;7.18;;;;;;;;;;6299592;22;20062;-80
2023/10/03 05:13:01;;;;;;;16.38;7.18;;;;;;;;;;6299762;22;20046;-81
2023/10/03 05:15:28;;;;;;;17.27;7.97;;;;;;;;;;6324168;22;20023;-80
2023/10/03 05:17:54;;;;;;;19.73;7.45;;;;;;;;;;6325478;22;20011;-80
2023/10/03 05:20:21;;;;;;;18.88;8.25;;;;;;;;;;6324837;22;20015;-81
2023/10/03 05:22:47;;;;;;;20.02;7.90;;;;;;;;;;6297662;22;20022;-80
2023/10/03 05:25:17;;;;;;;14.88;7.50;;;;;;;;;;6296989;22;20015;-80
2023/10/03 05:27:43;;;;;;;18.95;8.20;;;;;;;;;;6297854;22;20015;-80
2023/10/03 05:30:10;;;;;;;19.38;8.25;;;;;;;;;;6299152;22;20042;-80
2023/10/03 05:32:37;;;;;;;13.57;6.38;;;;;;;;;;6297365;22;20016;-82
2023/10/03 05:35:07;;;;;;;21.27;7.97;;;;;;;;;;6271207;22;20082;-83
2023/10/03 05:37:34;;;;;;;16.60;7.03;;;;;;;;;;6315039;22;20018;-83
2023/10/03 05:40:15;;;;;;;18.85;7.88;;;;;;;;;;6293870;22;20063;-84
2023/10/03 05:42:43;;;;;;;18.17;7.38;;;;;;;;;;6293769;22;20041;-84
2023/10/03 05:45:13;;;;;;;17.05;7.53;;;;;;;;;;6322391;22;20019;-83
2023/10/03 05:47:40;;;;;;;13.68;6.85;;;;;;;;;;6291687;22;20019;-83
2023/10/03 05:50:06;;;;;;;16.83;7.47;;;;;;;;;;6288338;22;20094;-83
2023/10/03 05:52:32;;;;;;;14.48;7.15;;;;;;;;;;6317930;22;20011;-83
2023/10/03 05:54:59;;;;;;;15.43;6.80;;;;;;;;;;6317511;22;20011;-83
2023/10/03 05:57:25;;;;;;;14.40;7.05;;;;;;;;;;6289610;22;20015;-82
2023/10/03 05:59:51;;;;;;;13.60;6.15;;;;;;;;;;6314101;22;20095;-85
2023/10/03 06:02:17;;;;;;;13.85;6.30;;;;;;;;;;6289807;22;20026;-83
2023/10/03 06:04:43;;;;;;;16.38;6.65;;;;;;;;;;6289183;22;20027;-83
2023/10/03 06:07:09;;;;;;;13.38;6.32;;;;;;;;;;6266616;22;20015;-82
2023/10/03 06:09:35;;;;;;;14.98;6.63;;;;;;;;;;6289425;22;20044;-84
2023/10/03 06:12:02;;;;;;;11.05;5.63;;;;;;;;;;6290094;22;20447;-82
2023/10/03 06:14:28;;;;;;;9.48;5.13;;;;;;;;;;6292456;22;20011;-83
2023/10/03 06:16:54;;;;;;;12.05;5.80;;;;;;;;;;6292854;22;20006;-82
2023/10/03 06:19:20;;;;;;;10.93;4.65;;;;;;;;;;6286425;22;20074;-85
2023/10/03 06:21:47;;;;;;;12.02;4.57;;;;;;;;;;6277529;22;20045;-84
2023/10/03 06:24:13;;;;;;;10.73;5.22;;;;;;;;;;6306504;22;20015;-85
2023/10/03 06:26:44;;;;;;;10.13;4.15;;;;;;;;;;6315433;22;20042;-84
2023/10/03 06:29:10;;;;;;;8.90;4.50;;;;;;;;;;6323136;22;20011;-81
2023/10/03 06:31:36;;;;;;;10.27;4.90;;;;;;;;;;6318915;22;20022;-82
2023/10/03 06:34:03;;;;;;;9.00;3.92;;;;;;;;;;6299741;22;20066;-82
2023/10/03 06:36:29;;;;;;;10.73;4.00;;;;;;;;;;6294035;22;20015;-81
2023/10/03 06:38:57;;;;;;;7.35;3.03;;;;;;;;;;6295739;22;20088;-82
2023/10/03 06:41:25;;;;;;;8.95;3.42;;;;;;;;;;6266413;22;20517;-83
2023/10/03 06:43:51;;;;;;;11.65;3.70;;;;;;;;;;6290067;22;20082;-84
2023/10/03 06:46:18;;;;;;;9.40;3.22;;;;;;;;;;6253627;22;20046;-84
2023/10/03 06:48:51;;;;;;;6.55;2.88;;;;;;;;;;6285187;22;20020;-80
2023/10/03 06:51:18;;;;;;;7.65;3.05;;;;;;;;;;6287421;22;20104;-88
2023/10/03 06:53:47;;;;;;;7.57;2.72;;;;;;;;;;6257241;22;20011;-84
2023/10/03 06:56:13;;;;;;;7.97;3.10;;;;;;;;;;6284539;22;20387;-85
2023/10/03 06:58:39;;;;;;;6.45;2.63;;;;;;;;;;6280024;22;20023;-84
2023/10/03 07:01:05;;;;;;;5.82;2.65;;;;;;;;;;6281990;22;20482;-81
2023/10/03 07:03:31;;;;;;;9.82;3.13;;;;;;;;;;6318889;22;20025;-83
2023/10/03 07:05:57;;;;;;;3.92;2.15;;;;;;;;;;6319233;22;20015;-84
2023/10/03 07:08:27;;;;;;;9.90;2.88;;;;;;;;;;6316961;22;20467;-83
2023/10/03 07:10:53;;;;;;;8.25;2.67;;;;;;;;;;6316891;22;20011;-82
2023/10/03 07:13:20;;;;;;;4.70;2.30;;;;;;;;;;6290493;22;20055;-84
2023/10/03 07:15:46;;;;;;;4.45;2.30;;;;;;;;;;6319455;22;20015;-83
2023/10/03 07:18:12;;;;;;;6.57;2.20;;;;;;;;;;6318978;22;20014;-83
2023/10/03 07:20:41;;;;;;;7.25;3.00;;;;;;;;;;6319011;22;20034;-83
2023/10/03 07:23:07;;;;;;;4.85;3.03;;;;;;;;;;6318801;22;20026;-83
2023/10/03 07:25:33;;;;;;;5.45;2.22;;;;;;;;;;6316655;22;20016;-83
2023/10/03 07:27:59;;;;;;;6.25;2.65;;;;;;;;;;6316818;22;20047;-83
2023/10/03 07:30:26;;;;;;;5.93;2.50;;;;;;;;;;6291293;22;20018;-83
2023/10/03 07:32:52;;;;;;;5.35;2.55;;;;;;;;;;6289479;22;20074;-83
2023/10/03 07:35:19;;;;;;;8.63;3.15;;;;;;;;;;6289850;22;20011;-83
2023/10/03 07:37:45;;;;;;;7.28;3.28;;;;;;;;;;6290301;22;20015;-83
2023/10/03 07:40:11;;;;;;;5.38;2.63;;;;;;;;;;6288530;22;20017;-84
2023/10/03 07:42:42;;;;;;;10.38;4.65;;;;;;;;;;6316365;22;20046;-83
2023/10/03 07:45:09;;;;;;;6.80;2.70;;;;;;;;;;6318495;22;20251;-83
2023/10/03 07:47:37;;;;;;;7.82;2.53;;;;;;;;;;6318314;22;20052;-82
2023/10/03 07:50:03;;;;;;;8.13;3.05;;;;;;;;;;6285205;22;20016;-85
2023/10/03 07:52:29;;;;;;;4.55;2.58;;;;;;;;;;6279782;22;20019;-86
2023/10/03 07:54:56;;;;;;;5.97;2.35;;;;;;;;;;6306198;22;20369;-86
2023/10/03 07:57:26;;;;;;;7.63;2.95;;;;;;;;;;6278884;22;20504;-87
2023/10/03 07:59:52;;;;;;;7.30;3.17;;;;;;;;;;6280145;22;20015;-82
2023/10/03 08:02:25;;;;;;;4.10;2.13;;;;;;;;;;6285386;22;20015;-82
2023/10/03 08:04:52;;;;;;;4.70;2.05;;;;;;;;;;6313039;22;20037;-82
2023/10/03 08:07:24;;;;;;;4.35;2.40;;;;;;;;;;6312740;22;20039;-82
2023/10/03 08:09:51;;;;;;;7.10;3.03;;;;;;;;;;6290762;22;20043;-81
2023/10/03 08:12:24;;;;;;;6.57;2.97;;;;;;;;;;6317426;22;20014;-81
2023/10/03 08:14:54;;;;;;;5.60;2.80;;;;;;;;;;6317822;22;20035;-82
2023/10/03 08:17:20;;;;;;;13.30;4.82;;;;;;;;;;6290964;22;20023;-80
2023/10/03 08:19:49;;;;;;;6.40;2.60;;;;;;;;;;6286389;22;20022;-80
2023/10/03 08:22:15;;;;;;;6.40;2.83;;;;;;;;;;6258283;22;20015;-80
2023/10/03 08:24:44;;;;;;;5.82;2.42;;;;;;;;;;6282882;22;20037;-81
2023/10/03 08:27:18;;;;;;;4.85;2.20;;;;;;;;;;6284388;22;20015;-80
2023/10/03 08:29:50;;;;;;;5.85;2.47;;;;;;;;;;6283383;22;20026;-80
2023/10/03 08:32:17;;;;;;;4.70;2.65;;;;;;;;;;6282490;22;20067;-81
2023/10/03 08:34:44;;;;;;;5.57;2.15;;;;;;;;;;6283007;22;20117;-82
2023/10/03 08:37:18;;;;;;;7.88;2.33;;;;;;;;;;6282435;22;20458;-81
2023/10/03 08:39:51;;;;;;;3.33;1.35;;;;;;;;;;6281825;22;20016;-81
2023/10/03 08:42:36;;;;;;;2.78;1.30;;;;;;;;;;6285246;22;20085;-82
2023/10/03 08:45:26;;;;;;;4.60;1.35;;;;;;;;;;6283333;22;20011;-83
2023/10/03 08:47:53;;;;;;;6.05;1.50;;;;;;;;;;6285325;22;20070;-83
2023/10/03 08:50:46;;;;;;;4.43;1.98;;;;;;;;;;6284135;22;20054;-83
2023/10/03 08:53:27;;;;;;;6.45;1.75;;;;;;;;;;6272722;22;20019;-83
2023/10/03 08:55:57;;;;;;;3.90;1.50;;;;;;;;;;6312372;22;20030;-82
2023/10/03 08:58:25;;;;;;;;;;;;;;;;;;6284128;22;20019;-82
2023/10/03 09:00:58;;;;;;;3.50;1.55;;;;;;;;;;6282134;22;19911;-83
2023/10/03 09:03:25;;;;;;;4.00;1.00;;;;;;;;;;6283106;22;20011;-81
2023/10/03 09:05:51;;;;;;;3.45;1.92;;;;;;;;;;6282614;22;20019;-83
2023/10/03 09:08:17;;;;;;;3.75;0.98;;;;;;;;;;6310172;22;20013;-81
2023/10/03 09:13:23;;;;;;;1.73;0.70;;;;;;;;;;6283128;22;20015;-82
2023/10/03 09:15:49;;;;;;;5.90;1.05;;;;;;;;;;6310422;22;20041;-83
2023/10/03 09:18:21;;;;;;;3.30;0.85;;;;;;;;;;6282409;22;20056;-83
2023/10/03 09:20:49;;;;;;;1.38;0.43;;;;;;;;;;6282760;22;20018;-83
2023/10/03 09:23:17;;;;;;;3.35;0.60;;;;;;;;;;6281398;22;20088;-84
2023/10/03 09:25:52;;;;;;;2.65;0.65;;;;;;;;;;6283074;22;20011;-82
2023/10/03 09:28:27;;;;;;;3.30;0.70;;;;;;;;;;6282035;22;20511;-83
2023/10/03 09:30:55;;;;;;;1.67;0.70;;;;;;;;;;6257105;22;20026;-81
2023/10/03 09:33:22;;;;;;;3.13;0.30;;;;;;;;;;6311592;22;20011;-82
2023/10/03 09:36:01;;;;;;;0.45;0.30;;;;;;;;;;6257818;22;20015;-82
2023/10/03 09:38:44;;;;;;;1.92;0.30;;;;;;;;;;6310260;22;20342;-82
2023/10/03 09:41:22;;;;;;;1.65;0.38;;;;;;;;;;6309967;22;20021;-83
2023/10/03 09:43:50;;;;;;;2.15;0.20;;;;;;;;;;6311042;22;20076;-83
2023/10/03 09:46:23;;;;;;;0.65;0.20;;;;;;;;;;6309751;22;20023;-83
2023/10/03 09:48:53;;;;;;;3.15;0.30;;;;;;;;;;6310033;22;20038;-82
2023/10/03 09:51:21;;;;;;;0.95;0.30;;;;;;;;;;6282802;22;20019;-82
2023/10/03 09:53:48;;;;;;;2.33;0.30;;;;;;;;;;6311143;22;20062;-82
2023/10/03 09:56:19;;;;;;;2.03;0.38;;;;;;;;;;6283171;22;20019;-82
2023/10/03 09:58:48;;;;;;;2.88;0.50;;;;;;;;;;6288895;22;20096;-82
2023/10/03 10:01:14;;;;;;;0.77;0.20;;;;;;;;;;6285814;22;20019;-83
2023/10/03 10:03:46;;;;;;;2.90;0.45;;;;;;;;;;6283994;22;20019;-82
2023/10/03 10:06:21;;;;;;;1.77;0.32;;;;;;;;;;6257580;22;20016;-83
2023/10/03 10:08:58;;;;;;;0.90;0.28;;;;;;;;;;6283699;22;20018;-82
2023/10/03 10:11:27;;;;;;;2.47;0.28;;;;;;;;;;6283885;22;20015;-82
2023/10/03 10:14:02;;;;;;;0.60;0.28;;;;;;;;;;6255374;22;20040;-82
2023/10/03 10:16:28;;;;;;;1.42;0.38;;;;;;;;;;6283631;22;20018;-82
2023/10/03 10:18:57;;;;;;;1.98;0.50;;;;;;;;;;6310146;22;20403;-83
2023/10/03 10:21:23;;;;;;;3.15;0.43;;;;;;;;;;6312142;22;20017;-83
2023/10/03 10:24:16;;;;;;;0.50;0.20;;;;;;;;;;6284503;22;20011;-82
2023/10/03 10:26:52;;;;;;;1.67;0.45;;;;;;;;;;6278927;22;20105;-83
2023/10/03 10:29:22;;;;;;;1.10;0.20;;;;;;;;;;6283696;22;20016;-82
2023/10/03 10:31:57;;;;;;;0.98;0.20;;;;;;;;;;6311316;22;20015;-81
2023/10/03 10:34:29;;;;;;;6.40;0.60;;;;;;;;;;6309034;22;20017;-80
2023/10/03 10:37:15;;;;;;;3.15;0.40;;;;;;;;;;6312196;22;20026;-81
2023/10/03 10:39:56;;;;;;;1.48;0.30;;;;;;;;;;6282231;22;20019;-81
2023/10/03 10:42:26;;;;;;;0.38;0.20;;;;;;;;;;6308076;22;20019;-83
2023/10/03 10:45:13;;;;;;;1.58;0.20;;;;;;;;;;6308248;22;20012;-80
2023/10/03 10:47:50;;;;;;;0.63;0.13;;;;;;;;;;6305745;22;20421;-79
2023/10/03 10:50:17;;;;;;;0.68;0.13;;;;;;;;;;6305900;22;20309;-79
2023/10/03 10:52:56;;;;;;;1.17;0.15;;;;;;;;;;6306719;22;20018;-79
2023/10/03 10:55:22;;;;;;;2.83;0.40;;;;;;;;;;6307540;22;20035;-79
2023/10/03 10:58:01;;;;;;;2.63;0.43;;;;;;;;;;6306587;22;20153;-79
2023/10/03 11:00:27;;;;;;;0.32;0.20;;;;;;;;;;6279111;22;20025;-79
2023/10/03 11:02:53;;;;;;;0.65;0.38;;;;;;;;;;6279454;22;20023;-80
2023/10/03 11:05:20;;;;;;;0.90;0.20;;;;;;;;;;6276403;22;20022;-81
2023/10/03 11:07:53;;;;;;;2.65;0.82;;;;;;;;;;6282847;22;20027;-81
2023/10/03 11:10:21;;;;;;;1.70;0.50;;;;;;;;;;6309516;22;20015;-80
2023/10/03 11:12:57;;;;;;;3.13;0.85;;;;;;;;;;6282945;22;20089;-81
2023/10/03 11:15:23;;;;;;;1.65;0.50;;;;;;;;;;6282389;22;20020;-80
2023/10/03 11:17:50;;;;;;;1.27;0.40;;;;;;;;;;6310205;22;20011;-80
2023/10/03 11:20:16;;;;;;;1.23;0.38;;;;;;;;;;6310350;22;20015;-80
2023/10/03 11:22:44;;;;;;;3.20;0.65;;;;;;;;;;6311826;22;20026;-83
2023/10/03 11:25:11;;;;;;;1.77;0.38;;;;;;;;;;6283422;22;20023;-83
2023/10/03 11:27:38;;;;;;;1.27;0.50;;;;;;;;;;6284719;22;20448;-83
2023/10/03 11:30:14;;;;;;;1.73;0.57;;;;;;;;;;6283219;22;20432;-83
2023/10/03 11:32:40;;;;;;;;;;;;;;;;;;6282613;22;20026;-79
2023/10/03 11:35:20;;;;;;;1.45;0.55;;;;;;;;;;6308560;22;19918;-80
2023/10/03 11:37:47;;;;;;;0.85;0.57;;;;;;;;;;6310694;22;20007;-80
2023/10/03 11:40:16;;;;;;;1.90;0.70;;;;;;;;;;6310191;22;20018;-82
2023/10/03 11:42:48;;;;;;;1.58;0.63;;;;;;;;;;6312081;22;20019;-81
2023/10/03 11:45:28;;;;;;;1.88;0.60;;;;;;;;;;6312810;22;20045;-80
2023/10/03 11:48:01;;;;;;;1.10;0.40;;;;;;;;;;6259397;22;20456;-84
2023/10/03 11:50:27;;;;;;;1.85;0.50;;;;;;;;;;6283871;22;20015;-82
2023/10/03 11:52:57;;;;;;;2.08;0.50;;;;;;;;;;6311033;22;20011;-82
2023/10/03 11:55:26;;;;;;;1.13;0.45;;;;;;;;;;6311629;22;20091;-81
2023/10/03 11:57:53;;;;;;;1.70;0.50;;;;;;;;;;6312505;22;20042;-81
2023/10/03 12:00:24;;;;;;;1.02;0.52;;;;;;;;;;6285218;22;20012;-81
2023/10/03 12:02:50;;;;;;;3.47;0.85;;;;;;;;;;6313796;22;20015;-80
2023/10/03 12:05:16;;;;;;;2.65;0.70;;;;;;;;;;6311457;22;20065;-80
2023/10/03 12:07:45;;;;;;;3.17;0.95;;;;;;;;;;6311939;22;20015;-81
2023/10/03 12:10:12;;;;;;;2.03;0.95;;;;;;;;;;6311895;22;20513;-81
2023/10/03 12:12:38;;;;;;;1.92;0.80;;;;;;;;;;6286176;22;20012;-81
2023/10/03 12:15:12;;;;;;;2.95;0.90;;;;;;;;;;6312727;22;20023;-81
2023/10/03 12:17:38;;;;;;;2.92;1.10;;;;;;;;;;6285766;22;20088;-80
2023/10/03 12:20:04;;;;;;;3.60;0.95;;;;;;;;;;6312649;22;20015;-80
2023/10/03 12:22:30;;;;;;;2.42;0.77;;;;;;;;;;6286632;22;20073;-80
2023/10/03 12:24:56;;;;;;;4.20;1.05;;;;;;;;;;6315273;22;20019;-80
2023/10/03 12:27:22;;;;;;;3.00;0.90;;;;;;;;;;6285799;22;20049;-80
2023/10/03 12:29:49;;;;;;;3.05;0.75;;;;;;;;;;6314570;22;20015;-80
2023/10/03 12:32:16;;;;;;;3.15;0.75;;;;;;;;;;6311774;22;20057;-80
2023/10/03 12:34:43;;;;;;;2.20;1.00;;;;;;;;;;6284632;22;20051;-80
2023/10/03 12:37:11;;;;;;;4.28;1.15;;;;;;;;;;6308558;22;20015;-80
2023/10/03 12:39:37;;;;;;;2.30;0.82;;;;;;;;;;6280985;22;20019;-80
2023/10/03 12:42:04;;;;;;;2.92;0.93;;;;;;;;;;6308737;22;20090;-80
2023/10/03 12:44:31;;;;;;;1.77;0.90;;;;;;;;;;6309201;22;20011;-80
2023/10/03 12:46:58;;;;;;;4.10;1.00;;;;;;;;;;6308255;22;20458;-80
2023/10/03 12:49:24;;;;;;;1.77;0.90;;;;;;;;;;6310087;22;20019;-80
2023/10/03 12:51:52;;;;;;;3.67;1.23;;;;;;;;;;6282786;22;20090;-80
2023/10/03 12:54:18;;;;;;;3.25;0.90;;;;;;;;;;6309891;22;20022;-80
2023/10/03 12:56:44;;;;;;;2.78;0.93;;;;;;;;;;6311028;22;20090;-78
2023/10/03 12:59:10;;;;;;;2.22;0.80;;;;;;;;;;6282076;22;20023;-80
2023/10/03 13:01:36;;;;;;;1.98;1.33;;;;;;;;;;6286165;22;20015;-80
2023/10/03 13:04:02;;;;;;;2.15;1.00;;;;;;;;;;6313527;22;20041;-80
2023/10/03 13:06:28;;;;;;;3.58;0.90;;;;;;;;;;6314649;22;20041;-80
2023/10/03 13:08:54;;;;;;;1.83;0.98;;;;;;;;;;6285166;22;20098;-80
2023/10/03 13:11:20;;;;;;;2.92;0.95;;;;;;;;;;6312674;22;20041;-80
2023/10/03 13:13:48;;;;;;;5.50;1.30;;;;;;;;;;6316952;22;20023;-80
2023/10/03 13:16:14;;;;;;;5.00;1.05;;;;;;;;;;6288154;22;20015;-81
2023/10/03 13:18:40;;;;;;;2.53;1.33;;;;;;;;;;6263842;22;20019;-81
2023/10/03 13:21:06;;;;;;;1.30;0.85;;;;;;;;;;6260787;22;20015;-80
2023/10/03 13:23:33;;;;;;;2.95;1.10;;;;;;;;;;6262985;22;20015;-81
2023/10/03 13:25:59;;;;;;;3.83;1.15;;;;;;;;;;6287481;22;20015;-79
2023/10/03 13:28:25;;;;;;;2.85;1.02;;;;;;;;;;6286362;22;20038;-80
2023/10/03 13:30:51;;;;;;;3.95;1.20;;;;;;;;;;6288294;22;20033;-80
2023/10/03 13:33:18;;;;;;;3.67;1.30;;;;;;;;;;6315178;22;20026;-80
2023/10/03 13:35:47;;;;;;;2.65;0.80;;;;;;;;;;6315243;22;20007;-80
2023/10/03 13:38:13;;;;;;;3.72;1.10;;;;;;;;;;6312970;22;20011;-80
2023/10/03 13:40:39;;;;;;;3.45;1.13;;;;;;;;;;6283625;22;20090;-80
2023/10/03 13:43:06;;;;;;;3.60;1.10;;;;;;;;;;6310039;22;20011;-80
2023/10/03 13:45:32;;;;;;;4.95;1.23;;;;;;;;;;6309099;22;20064;-80
2023/10/03 13:47:59;;;;;;;4.03;1.00;;;;;;;;;;6310792;22;20023;-80
2023/10/03 13:50:26;;;;;;;4.80;1.10;;;;;;;;;;6309760;22;20012;-80
2023/10/03 13:52:55;;;;;;;6.57;1.48;;;;;;;;;;6309675;22;20015;-80
2023/10/03 13:55:23;;;;;;;6.60;1.23;;;;;;;;;;6282479;22;20825;-80
2023/10/03 13:57:50;;;;;;;5.25;1.20;;;;;;;;;;6309559;22;20035;-79
2023/10/03 14:00:16;;;;;;;3.70;1.20;;;;;;;;;;6280300;22;20015;-80
2023/10/03 14:02:45;;;;;;;6.40;1.40;;;;;;;;;;6305626;22;20023;-79
2023/10/03 14:05:11;;;;;;;2.90;0.90;;;;;;;;;;6305580;22;20042;-79
2023/10/03 14:07:37;;;;;;;6.00;1.35;;;;;;;;;;6305641;22;20408;-79
2023/10/03 14:10:06;;;;;;;4.72;1.20;;;;;;;;;;6305276;22;20030;-79
2023/10/03 14:12:33;;;;;;;12.73;1.88;;;;;;;;;;6305739;22;20324;-78
2023/10/03 14:14:59;;;;;;;5.95;1.92;;;;;;;;;;6278474;22;20038;-80
2023/10/03 14:17:25;;;;;;;2.45;0.70;;;;;;;;;;6278199;22;20015;-79
2023/10/03 14:19:51;;;;;;;3.20;0.95;;;;;;;;;;6307057;22;20011;-81
2023/10/03 14:22:20;;;;;;;3.30;1.20;;;;;;;;;;6284332;22;20437;-84
2023/10/03 14:24:46;;;;;;;2.58;0.80;;;;;;;;;;6283248;22;20019;-84
2023/10/03 14:27:13;;;;;;;6.25;1.35;;;;;;;;;;6308402;22;20011;-84
2023/10/03 14:29:42;;;;;;;4.40;1.20;;;;;;;;;;6281966;22;20025;-83
2023/10/03 14:32:10;;;;;;;2.88;1.00;;;;;;;;;;6310444;22;20049;-83
2023/10/03 14:34:37;;;;;;;1.63;1.02;;;;;;;;;;6310942;22;20022;-83
2023/10/03 14:37:03;;;;;;;4.25;1.30;;;;;;;;;;6309039;22;20479;-83
2023/10/03 14:39:29;;;;;;;3.00;0.90;;;;;;;;;;6282760;22;20019;-83
2023/10/03 14:41:56;;;;;;;2.53;0.80;;;;;;;;;;6305431;22;20471;-85
2023/10/03 14:44:22;;;;;;;3.30;0.70;;;;;;;;;;6308678;22;20015;-79
2023/10/03 14:46:49;;;;;;;2.47;1.00;;;;;;;;;;6305766;22;20023;-80
2023/10/03 14:49:14;;;;;;;2.42;0.95;;;;;;;;;;6281317;22;20027;-80
2023/10/03 14:51:44;;;;;;;3.80;1.10;;;;;;;;;;6309555;22;20018;-79